sensor_id;sensor_type;location;lat;lon;timestamp;temperature;humidity
18733;DHT22;9495;51.210;2.934;2022-08-03T00:02:16;22.70;99.90
18733;DHT22;9495;51.210;2.934;2022-08-03T00:04:45;22.70;99.90
18733;DHT22;9495;51.210;2.934;2022-08-03T00:07:14;22.70;99.90
18733;DHT22;9495;51.210;2.934;2022-08-03T00:09:42;22.90;99.90
18733;DHT22;9495;51.210;2.934;2022-08-03T00:12:12;22.80;99.90
18733;DHT22;9495;51.210;2.934;2022-08-03T00:14:41;22.90;99.90
18733;DHT22;9495;51.210;2.934;2022-08-03T00:17:10;22.80;99.90
18733;DHT22;9495;51.210;2.934;2022-08-03T00:19:38;23.10;99.90
18733;DHT22;9495;51.210;2.934;2022-08-03T00:22:07;23.20;99.90
18733;DHT22;9495;51.210;2.934;2022-08-03T00:24:36;23.20;99.90
18733;DHT22;9495;51.210;2.934;2022-08-03T00:27:04;23.10;99.90
18733;DHT22;9495;51.210;2.934;2022-08-03T00:29:34;22.90;99.90
18733;DHT22;9495;51.210;2.934;2022-08-03T00:32:22;22.90;99.90
18733;DHT22;9495;51.210;2.934;2022-08-03T00:34:53;22.80;99.90
18733;DHT22;9495;51.210;2.934;2022-08-03T00:37:25;22.80;99.90
18733;DHT22;9495;51.210;2.934;2022-08-03T00:40:09;22.50;99.90
18733;DHT22;9495;51.210;2.934;2022-08-03T00:42:46;22.90;99.90
18733;DHT22;9495;51.210;2.934;2022-08-03T00:45:18;22.80;99.90
18733;DHT22;9495;51.210;2.934;2022-08-03T00:47:47;23.10;99.90
18733;DHT22;9495;51.210;2.934;2022-08-03T00:50:16;23.30;99.90
18733;DHT22;9495;51.210;2.934;2022-08-03T00:52:45;23.30;99.90
18733;DHT22;9495;51.210;2.934;2022-08-03T00:55:14;23.10;99.90
18733;DHT22;9495;51.210;2.934;2022-08-03T00:57:43;23.10;99.90
18733;DHT22;9495;51.210;2.934;2022-08-03T01:00:14;23.00;99.90
18733;DHT22;9495;51.210;2.934;2022-08-03T01:02:44;23.30;99.90
18733;DHT22;9495;51.210;2.934;2022-08-03T01:05:13;22.90;99.90
18733;DHT22;9495;51.210;2.934;2022-08-03T01:07:50;22.90;99.90
18733;DHT22;9495;51.210;2.934;2022-08-03T01:13:19;22.60;99.90
18733;DHT22;9495;51.210;2.934;2022-08-03T01:16:11;22.50;99.90
18733;DHT22;9495;51.210;2.934;2022-08-03T01:18:49;22.30;99.90
18733;DHT22;9495;51.210;2.934;2022-08-03T01:21:25;22.20;99.90
18733;DHT22;9495;51.210;2.934;2022-08-03T01:24:20;22.10;99.90
18733;DHT22;9495;51.210;2.934;2022-08-03T01:27:02;21.90;99.90
18733;DHT22;9495;51.210;2.934;2022-08-03T01:29:55;21.80;99.90
18733;DHT22;9495;51.210;2.934;2022-08-03T01:32:30;21.80;99.90
18733;DHT22;9495;51.210;2.934;2022-08-03T01:35:24;21.70;99.90
18733;DHT22;9495;51.210;2.934;2022-08-03T01:37:56;21.70;99.90
18733;DHT22;9495;51.210;2.934;2022-08-03T01:40:26;21.40;99.90
18733;DHT22;9495;51.210;2.934;2022-08-03T01:42:56;21.20;99.90
18733;DHT22;9495;51.210;2.934;2022-08-03T01:45:28;21.10;99.90
18733;DHT22;9495;51.210;2.934;2022-08-03T01:48:00;20.90;99.90
18733;DHT22;9495;51.210;2.934;2022-08-03T01:50:31;21.00;99.90
18733;DHT22;9495;51.210;2.934;2022-08-03T01:53:01;21.10;99.90
18733;DHT22;9495;51.210;2.934;2022-08-03T01:55:30;20.90;99.90
18733;DHT22;9495;51.210;2.934;2022-08-03T01:58:02;21.40;99.90
18733;DHT22;9495;51.210;2.934;2022-08-03T02:00:35;21.70;99.90
18733;DHT22;9495;51.210;2.934;2022-08-03T02:03:05;21.80;99.90
18733;DHT22;9495;51.210;2.934;2022-08-03T02:05:34;21.90;99.90
18733;DHT22;9495;51.210;2.934;2022-08-03T02:08:07;22.30;99.90
18733;DHT22;9495;51.210;2.934;2022-08-03T02:10:36;22.50;99.90
18733;DHT22;9495;51.210;2.934;2022-08-03T02:13:07;22.80;99.90
18733;DHT22;9495;51.210;2.934;2022-08-03T02:15:38;22.60;99.90
18733;DHT22;9495;51.210;2.934;2022-08-03T02:18:08;22.40;99.90
18733;DHT22;9495;51.210;2.934;2022-08-03T02:20:40;22.10;99.90
18733;DHT22;9495;51.210;2.934;2022-08-03T02:23:09;22.10;99.90
18733;DHT22;9495;51.210;2.934;2022-08-03T02:25:42;22.00;99.90
18733;DHT22;9495;51.210;2.934;2022-08-03T02:28:15;21.70;99.90
18733;DHT22;9495;51.210;2.934;2022-08-03T02:30:51;21.90;99.90
18733;DHT22;9495;51.210;2.934;2022-08-03T02:33:25;21.50;99.90
18733;DHT22;9495;51.210;2.934;2022-08-03T02:35:56;21.70;99.90
18733;DHT22;9495;51.210;2.934;2022-08-03T02:38:31;21.50;99.90
18733;DHT22;9495;51.210;2.934;2022-08-03T02:41:00;21.50;99.90
18733;DHT22;9495;51.210;2.934;2022-08-03T02:43:34;21.50;99.90
18733;DHT22;9495;51.210;2.934;2022-08-03T02:46:29;21.20;99.90
18733;DHT22;9495;51.210;2.934;2022-08-03T02:49:00;21.10;99.90
18733;DHT22;9495;51.210;2.934;2022-08-03T02:51:51;21.20;99.90
18733;DHT22;9495;51.210;2.934;2022-08-03T02:54:21;21.40;99.90
18733;DHT22;9495;51.210;2.934;2022-08-03T02:56:51;21.60;99.90
18733;DHT22;9495;51.210;2.934;2022-08-03T02:59:21;21.80;99.90
18733;DHT22;9495;51.210;2.934;2022-08-03T03:01:52;21.80;99.90
18733;DHT22;9495;51.210;2.934;2022-08-03T03:04:22;22.00;99.90
18733;DHT22;9495;51.210;2.934;2022-08-03T03:06:59;22.30;99.90
18733;DHT22;9495;51.210;2.934;2022-08-03T03:09:31;22.30;99.90
18733;DHT22;9495;51.210;2.934;2022-08-03T03:12:07;21.80;99.90
18733;DHT22;9495;51.210;2.934;2022-08-03T03:14:37;21.70;99.90
18733;DHT22;9495;51.210;2.934;2022-08-03T03:17:08;21.70;99.90
18733;DHT22;9495;51.210;2.934;2022-08-03T03:19:38;21.90;99.90
18733;DHT22;9495;51.210;2.934;2022-08-03T03:22:07;22.20;99.90
18733;DHT22;9495;51.210;2.934;2022-08-03T03:24:37;21.90;99.90
18733;DHT22;9495;51.210;2.934;2022-08-03T03:27:07;22.10;99.90
18733;DHT22;9495;51.210;2.934;2022-08-03T03:29:42;22.40;99.90
18733;DHT22;9495;51.210;2.934;2022-08-03T03:32:12;22.60;99.90
18733;DHT22;9495;51.210;2.934;2022-08-03T03:34:41;22.90;99.90
18733;DHT22;9495;51.210;2.934;2022-08-03T03:37:10;22.90;99.90
18733;DHT22;9495;51.210;2.934;2022-08-03T03:39:38;22.50;99.90
18733;DHT22;9495;51.210;2.934;2022-08-03T03:42:07;22.90;99.90
18733;DHT22;9495;51.210;2.934;2022-08-03T03:44:35;22.60;99.90
18733;DHT22;9495;51.210;2.934;2022-08-03T03:47:04;22.30;99.90
18733;DHT22;9495;51.210;2.934;2022-08-03T03:49:35;22.40;99.90
18733;DHT22;9495;51.210;2.934;2022-08-03T03:52:04;22.70;99.90
18733;DHT22;9495;51.210;2.934;2022-08-03T03:54:40;22.60;99.90
18733;DHT22;9495;51.210;2.934;2022-08-03T03:57:09;22.40;99.90
18733;DHT22;9495;51.210;2.934;2022-08-03T03:59:40;22.40;99.90
18733;DHT22;9495;51.210;2.934;2022-08-03T04:02:10;22.00;99.90
18733;DHT22;9495;51.210;2.934;2022-08-03T04:04:40;22.10;99.90
18733;DHT22;9495;51.210;2.934;2022-08-03T04:07:26;21.60;99.90
18733;DHT22;9495;51.210;2.934;2022-08-03T04:10:20;21.30;99.90
18733;DHT22;9495;51.210;2.934;2022-08-03T04:13:09;21.40;99.90
18733;DHT22;9495;51.210;2.934;2022-08-03T04:15:39;21.10;99.90
18733;DHT22;9495;51.210;2.934;2022-08-03T04:18:11;21.00;99.90
18733;DHT22;9495;51.210;2.934;2022-08-03T04:20:45;21.10;99.90
18733;DHT22;9495;51.210;2.934;2022-08-03T04:23:15;21.10;99.90
18733;DHT22;9495;51.210;2.934;2022-08-03T04:25:48;21.20;99.90
18733;DHT22;9495;51.210;2.934;2022-08-03T04:28:18;20.80;99.90
18733;DHT22;9495;51.210;2.934;2022-08-03T04:30:58;20.70;99.90
18733;DHT22;9495;51.210;2.934;2022-08-03T04:33:28;20.80;99.90
18733;DHT22;9495;51.210;2.934;2022-08-03T04:36:05;20.50;99.90
18733;DHT22;9495;51.210;2.934;2022-08-03T04:38:37;20.40;99.90
18733;DHT22;9495;51.210;2.934;2022-08-03T04:41:07;20.40;99.90
18733;DHT22;9495;51.210;2.934;2022-08-03T04:43:37;20.60;99.90
18733;DHT22;9495;51.210;2.934;2022-08-03T04:46:07;21.00;99.90
18733;DHT22;9495;51.210;2.934;2022-08-03T04:48:36;20.80;99.90
18733;DHT22;9495;51.210;2.934;2022-08-03T04:51:11;21.20;99.90
18733;DHT22;9495;51.210;2.934;2022-08-03T04:53:40;21.40;99.90
18733;DHT22;9495;51.210;2.934;2022-08-03T04:56:09;21.80;99.90
18733;DHT22;9495;51.210;2.934;2022-08-03T04:58:38;21.90;99.90
18733;DHT22;9495;51.210;2.934;2022-08-03T05:01:06;22.30;99.90
18733;DHT22;9495;51.210;2.934;2022-08-03T05:03:35;22.10;99.90
18733;DHT22;9495;51.210;2.934;2022-08-03T05:06:04;22.20;99.90
18733;DHT22;9495;51.210;2.934;2022-08-03T05:08:38;22.20;99.90
18733;DHT22;9495;51.210;2.934;2022-08-03T05:11:13;22.50;99.90
18733;DHT22;9495;51.210;2.934;2022-08-03T05:13:41;22.30;99.90
18733;DHT22;9495;51.210;2.934;2022-08-03T05:16:10;22.40;99.90
18733;DHT22;9495;51.210;2.934;2022-08-03T05:18:39;22.50;99.90
18733;DHT22;9495;51.210;2.934;2022-08-03T05:21:08;22.50;99.90
18733;DHT22;9495;51.210;2.934;2022-08-03T05:23:38;22.30;99.90
18733;DHT22;9495;51.210;2.934;2022-08-03T05:26:07;22.20;99.90
18733;DHT22;9495;51.210;2.934;2022-08-03T05:28:37;21.60;99.90
18733;DHT22;9495;51.210;2.934;2022-08-03T05:31:17;21.70;99.90
18733;DHT22;9495;51.210;2.934;2022-08-03T05:33:45;21.30;99.90
18733;DHT22;9495;51.210;2.934;2022-08-03T05:36:14;21.50;99.90
18733;DHT22;9495;51.210;2.934;2022-08-03T05:38:44;21.60;99.90
18733;DHT22;9495;51.210;2.934;2022-08-03T05:41:13;21.90;99.90
18733;DHT22;9495;51.210;2.934;2022-08-03T05:43:50;21.90;99.90
18733;DHT22;9495;51.210;2.934;2022-08-03T05:46:18;22.00;99.90
18733;DHT22;9495;51.210;2.934;2022-08-03T05:48:47;21.80;99.90
18733;DHT22;9495;51.210;2.934;2022-08-03T05:51:16;21.80;99.90
18733;DHT22;9495;51.210;2.934;2022-08-03T05:53:45;21.70;99.90
18733;DHT22;9495;51.210;2.934;2022-08-03T05:56:14;22.00;99.90
18733;DHT22;9495;51.210;2.934;2022-08-03T05:58:44;22.30;99.90
18733;DHT22;9495;51.210;2.934;2022-08-03T06:01:13;22.90;99.90
18733;DHT22;9495;51.210;2.934;2022-08-03T06:03:41;23.00;99.90
18733;DHT22;9495;51.210;2.934;2022-08-03T06:06:10;22.80;99.90
18733;DHT22;9495;51.210;2.934;2022-08-03T06:08:39;22.90;99.90
18733;DHT22;9495;51.210;2.934;2022-08-03T06:11:09;22.50;99.90
18733;DHT22;9495;51.210;2.934;2022-08-03T06:13:37;22.40;99.90
18733;DHT22;9495;51.210;2.934;2022-08-03T06:16:06;22.60;99.90
18733;DHT22;9495;51.210;2.934;2022-08-03T06:18:34;22.80;99.90
18733;DHT22;9495;51.210;2.934;2022-08-03T06:21:03;22.60;99.90
18733;DHT22;9495;51.210;2.934;2022-08-03T06:23:42;22.60;99.90
18733;DHT22;9495;51.210;2.934;2022-08-03T06:26:24;22.70;99.90
18733;DHT22;9495;51.210;2.934;2022-08-03T06:28:54;23.00;99.90
18733;DHT22;9495;51.210;2.934;2022-08-03T06:31:23;23.10;99.90
18733;DHT22;9495;51.210;2.934;2022-08-03T06:34:00;22.10;99.90
18733;DHT22;9495;51.210;2.934;2022-08-03T06:36:49;21.40;99.90
18733;DHT22;9495;51.210;2.934;2022-08-03T06:39:18;22.80;99.90
18733;DHT22;9495;51.210;2.934;2022-08-03T06:41:51;23.30;99.90
18733;DHT22;9495;51.210;2.934;2022-08-03T06:44:20;23.50;99.90
18733;DHT22;9495;51.210;2.934;2022-08-03T06:46:49;23.80;99.90
18733;DHT22;9495;51.210;2.934;2022-08-03T06:49:17;23.90;99.90
18733;DHT22;9495;51.210;2.934;2022-08-03T06:51:46;23.30;99.90
18733;DHT22;9495;51.210;2.934;2022-08-03T06:54:33;22.80;99.90
18733;DHT22;9495;51.210;2.934;2022-08-03T06:57:03;23.30;99.90
18733;DHT22;9495;51.210;2.934;2022-08-03T06:59:32;23.70;99.90
18733;DHT22;9495;51.210;2.934;2022-08-03T07:02:20;23.70;99.90
18733;DHT22;9495;51.210;2.934;2022-08-03T07:04:49;23.80;99.90
18733;DHT22;9495;51.210;2.934;2022-08-03T07:07:18;24.00;99.90
18733;DHT22;9495;51.210;2.934;2022-08-03T07:09:46;24.00;99.90
18733;DHT22;9495;51.210;2.934;2022-08-03T07:12:25;24.00;99.90
18733;DHT22;9495;51.210;2.934;2022-08-03T07:14:54;24.20;99.90
18733;DHT22;9495;51.210;2.934;2022-08-03T07:17:28;24.30;99.90
18733;DHT22;9495;51.210;2.934;2022-08-03T07:19:57;24.00;99.90
18733;DHT22;9495;51.210;2.934;2022-08-03T07:22:25;24.20;99.90
18733;DHT22;9495;51.210;2.934;2022-08-03T07:24:55;24.30;99.90
18733;DHT22;9495;51.210;2.934;2022-08-03T07:27:25;24.30;99.90
18733;DHT22;9495;51.210;2.934;2022-08-03T07:29:54;24.10;99.90
18733;DHT22;9495;51.210;2.934;2022-08-03T07:32:23;24.00;99.90
18733;DHT22;9495;51.210;2.934;2022-08-03T07:34:51;24.00;99.90
18733;DHT22;9495;51.210;2.934;2022-08-03T07:37:27;24.20;99.90
18733;DHT22;9495;51.210;2.934;2022-08-03T07:39:56;24.40;99.90
18733;DHT22;9495;51.210;2.934;2022-08-03T07:42:25;24.30;99.90
18733;DHT22;9495;51.210;2.934;2022-08-03T07:44:54;23.90;99.90
18733;DHT22;9495;51.210;2.934;2022-08-03T07:47:23;23.80;99.90
18733;DHT22;9495;51.210;2.934;2022-08-03T07:50:02;24.20;99.90
18733;DHT22;9495;51.210;2.934;2022-08-03T07:52:30;24.30;99.90
18733;DHT22;9495;51.210;2.934;2022-08-03T07:55:19;23.80;99.90
18733;DHT22;9495;51.210;2.934;2022-08-03T07:58:02;24.10;99.90
18733;DHT22;9495;51.210;2.934;2022-08-03T08:00:31;24.30;99.90
18733;DHT22;9495;51.210;2.934;2022-08-03T08:03:00;24.30;99.90
18733;DHT22;9495;51.210;2.934;2022-08-03T08:05:28;24.30;99.90
18733;DHT22;9495;51.210;2.934;2022-08-03T08:07:57;24.30;99.90
18733;DHT22;9495;51.210;2.934;2022-08-03T08:10:26;24.50;99.90
18733;DHT22;9495;51.210;2.934;2022-08-03T08:12:56;24.60;99.90
18733;DHT22;9495;51.210;2.934;2022-08-03T08:15:24;24.60;99.90
18733;DHT22;9495;51.210;2.934;2022-08-03T08:17:54;24.30;99.90
18733;DHT22;9495;51.210;2.934;2022-08-03T08:20:25;24.20;99.90
18733;DHT22;9495;51.210;2.934;2022-08-03T08:22:59;24.40;99.90
18733;DHT22;9495;51.210;2.934;2022-08-03T08:25:29;23.90;99.90
18733;DHT22;9495;51.210;2.934;2022-08-03T08:27:59;24.20;99.90
18733;DHT22;9495;51.210;2.934;2022-08-03T08:30:49;24.30;99.90
18733;DHT22;9495;51.210;2.934;2022-08-03T08:33:18;24.50;99.90
18733;DHT22;9495;51.210;2.934;2022-08-03T08:35:51;24.60;99.90
18733;DHT22;9495;51.210;2.934;2022-08-03T08:38:20;24.40;99.90
18733;DHT22;9495;51.210;2.934;2022-08-03T08:40:49;24.60;99.90
18733;DHT22;9495;51.210;2.934;2022-08-03T08:43:18;24.40;99.90
18733;DHT22;9495;51.210;2.934;2022-08-03T08:45:48;24.40;99.90
18733;DHT22;9495;51.210;2.934;2022-08-03T08:48:21;24.70;99.90
18733;DHT22;9495;51.210;2.934;2022-08-03T08:50:52;24.70;99.90
18733;DHT22;9495;51.210;2.934;2022-08-03T08:53:21;24.60;99.90
18733;DHT22;9495;51.210;2.934;2022-08-03T08:55:54;24.50;99.90
18733;DHT22;9495;51.210;2.934;2022-08-03T08:58:32;24.70;99.90
18733;DHT22;9495;51.210;2.934;2022-08-03T09:01:02;24.60;99.90
18733;DHT22;9495;51.210;2.934;2022-08-03T09:03:32;24.40;99.90
18733;DHT22;9495;51.210;2.934;2022-08-03T09:06:01;24.70;99.90
18733;DHT22;9495;51.210;2.934;2022-08-03T09:08:31;24.50;99.90
18733;DHT22;9495;51.210;2.934;2022-08-03T09:11:00;24.40;99.90
18733;DHT22;9495;51.210;2.934;2022-08-03T09:13:30;24.10;99.90
18733;DHT22;9495;51.210;2.934;2022-08-03T09:16:21;24.20;99.90
18733;DHT22;9495;51.210;2.934;2022-08-03T09:18:51;23.80;99.90
18733;DHT22;9495;51.210;2.934;2022-08-03T09:21:21;23.70;99.90
18733;DHT22;9495;51.210;2.934;2022-08-03T09:24:01;23.80;99.90
18733;DHT22;9495;51.210;2.934;2022-08-03T09:26:34;24.00;99.90
18733;DHT22;9495;51.210;2.934;2022-08-03T09:29:05;24.10;99.90
18733;DHT22;9495;51.210;2.934;2022-08-03T09:31:41;24.20;99.90
18733;DHT22;9495;51.210;2.934;2022-08-03T09:34:13;24.00;99.90
18733;DHT22;9495;51.210;2.934;2022-08-03T09:36:43;24.00;99.90
18733;DHT22;9495;51.210;2.934;2022-08-03T09:39:12;24.20;99.90
18733;DHT22;9495;51.210;2.934;2022-08-03T09:41:43;24.00;99.90
18733;DHT22;9495;51.210;2.934;2022-08-03T09:44:12;24.30;99.90
18733;DHT22;9495;51.210;2.934;2022-08-03T09:46:53;24.30;99.90
18733;DHT22;9495;51.210;2.934;2022-08-03T09:49:22;24.70;99.90
18733;DHT22;9495;51.210;2.934;2022-08-03T09:51:51;24.70;99.90
18733;DHT22;9495;51.210;2.934;2022-08-03T09:54:40;24.50;99.90
18733;DHT22;9495;51.210;2.934;2022-08-03T09:57:19;24.40;99.90
18733;DHT22;9495;51.210;2.934;2022-08-03T09:59:50;24.10;99.90
18733;DHT22;9495;51.210;2.934;2022-08-03T10:02:30;24.00;99.90
18733;DHT22;9495;51.210;2.934;2022-08-03T10:04:59;24.20;99.90
18733;DHT22;9495;51.210;2.934;2022-08-03T10:07:28;24.50;99.90
18733;DHT22;9495;51.210;2.934;2022-08-03T10:09:57;24.20;99.90
18733;DHT22;9495;51.210;2.934;2022-08-03T10:12:46;24.20;99.90
18733;DHT22;9495;51.210;2.934;2022-08-03T10:15:16;24.20;99.90
18733;DHT22;9495;51.210;2.934;2022-08-03T10:18:05;24.70;99.90
18733;DHT22;9495;51.210;2.934;2022-08-03T10:20:37;24.70;99.90
18733;DHT22;9495;51.210;2.934;2022-08-03T10:23:09;24.50;99.90
18733;DHT22;9495;51.210;2.934;2022-08-03T10:25:38;24.50;99.90
18733;DHT22;9495;51.210;2.934;2022-08-03T10:28:11;24.60;99.90
18733;DHT22;9495;51.210;2.934;2022-08-03T10:30:43;24.50;99.90
18733;DHT22;9495;51.210;2.934;2022-08-03T10:33:17;24.50;99.90
18733;DHT22;9495;51.210;2.934;2022-08-03T10:36:06;24.30;99.90
18733;DHT22;9495;51.210;2.934;2022-08-03T10:38:39;24.50;99.90
18733;DHT22;9495;51.210;2.934;2022-08-03T10:41:12;24.70;99.90
18733;DHT22;9495;51.210;2.934;2022-08-03T10:43:46;24.60;99.90
18733;DHT22;9495;51.210;2.934;2022-08-03T10:46:18;24.40;99.90
18733;DHT22;9495;51.210;2.934;2022-08-03T10:48:48;24.40;99.90
18733;DHT22;9495;51.210;2.934;2022-08-03T10:51:19;24.30;99.90
18733;DHT22;9495;51.210;2.934;2022-08-03T10:53:48;24.60;99.90
18733;DHT22;9495;51.210;2.934;2022-08-03T10:56:40;24.80;99.90
18733;DHT22;9495;51.210;2.934;2022-08-03T11:00:04;24.80;99.90
18733;DHT22;9495;51.210;2.934;2022-08-03T11:03:06;25.00;99.90
18733;DHT22;9495;51.210;2.934;2022-08-03T11:05:37;24.70;99.90
18733;DHT22;9495;51.210;2.934;2022-08-03T11:08:31;24.90;99.90
18733;DHT22;9495;51.210;2.934;2022-08-03T11:11:02;24.90;99.90
18733;DHT22;9495;51.210;2.934;2022-08-03T11:13:59;25.00;99.90
18733;DHT22;9495;51.210;2.934;2022-08-03T11:16:30;25.00;99.90
18733;DHT22;9495;51.210;2.934;2022-08-03T11:19:01;25.30;99.90
18733;DHT22;9495;51.210;2.934;2022-08-03T11:21:52;25.30;99.90
18733;DHT22;9495;51.210;2.934;2022-08-03T11:24:57;25.20;99.90
18733;DHT22;9495;51.210;2.934;2022-08-03T11:27:30;25.20;99.90
18733;DHT22;9495;51.210;2.934;2022-08-03T11:30:02;25.60;99.90
18733;DHT22;9495;51.210;2.934;2022-08-03T11:32:50;25.40;99.90
18733;DHT22;9495;51.210;2.934;2022-08-03T11:35:21;25.40;99.90
18733;DHT22;9495;51.210;2.934;2022-08-03T11:38:04;25.40;99.90
18733;DHT22;9495;51.210;2.934;2022-08-03T11:40:34;25.50;99.90
18733;DHT22;9495;51.210;2.934;2022-08-03T11:43:03;25.50;99.90
18733;DHT22;9495;51.210;2.934;2022-08-03T11:45:32;25.70;99.90
18733;DHT22;9495;51.210;2.934;2022-08-03T11:48:11;25.60;99.90
18733;DHT22;9495;51.210;2.934;2022-08-03T11:50:42;25.80;99.90
18733;DHT22;9495;51.210;2.934;2022-08-03T11:53:15;25.80;99.90
18733;DHT22;9495;51.210;2.934;2022-08-03T11:55:44;26.00;99.90
18733;DHT22;9495;51.210;2.934;2022-08-03T11:58:16;25.90;99.90
18733;DHT22;9495;51.210;2.934;2022-08-03T12:01:05;26.10;99.90
18733;DHT22;9495;51.210;2.934;2022-08-03T12:03:35;26.10;99.90
18733;DHT22;9495;51.210;2.934;2022-08-03T12:06:08;26.20;99.90
18733;DHT22;9495;51.210;2.934;2022-08-03T12:08:38;26.10;99.90
18733;DHT22;9495;51.210;2.934;2022-08-03T12:11:07;26.00;99.90
18733;DHT22;9495;51.210;2.934;2022-08-03T12:13:41;26.00;99.90
18733;DHT22;9495;51.210;2.934;2022-08-03T12:16:29;26.10;99.90
18733;DHT22;9495;51.210;2.934;2022-08-03T12:18:59;26.10;99.90
18733;DHT22;9495;51.210;2.934;2022-08-03T12:21:29;26.10;99.90
18733;DHT22;9495;51.210;2.934;2022-08-03T12:23:59;26.10;99.90
18733;DHT22;9495;51.210;2.934;2022-08-03T12:26:29;26.10;99.90
18733;DHT22;9495;51.210;2.934;2022-08-03T12:28:58;26.20;99.90
18733;DHT22;9495;51.210;2.934;2022-08-03T12:31:26;26.30;99.90
18733;DHT22;9495;51.210;2.934;2022-08-03T12:33:56;26.30;99.90
18733;DHT22;9495;51.210;2.934;2022-08-03T12:36:26;26.30;99.90
18733;DHT22;9495;51.210;2.934;2022-08-03T12:38:57;26.30;99.90
18733;DHT22;9495;51.210;2.934;2022-08-03T12:41:29;26.30;99.90
18733;DHT22;9495;51.210;2.934;2022-08-03T12:44:00;26.30;99.90
18733;DHT22;9495;51.210;2.934;2022-08-03T12:46:31;26.30;99.90
18733;DHT22;9495;51.210;2.934;2022-08-03T12:49:03;26.20;99.90
18733;DHT22;9495;51.210;2.934;2022-08-03T12:51:33;26.30;99.90
18733;DHT22;9495;51.210;2.934;2022-08-03T12:54:04;26.30;99.90
18733;DHT22;9495;51.210;2.934;2022-08-03T12:56:32;26.40;99.90
18733;DHT22;9495;51.210;2.934;2022-08-03T12:59:24;26.40;99.90
18733;DHT22;9495;51.210;2.934;2022-08-03T13:02:01;26.30;99.90
18733;DHT22;9495;51.210;2.934;2022-08-03T13:04:35;26.20;99.90
18733;DHT22;9495;51.210;2.934;2022-08-03T13:07:06;26.20;99.90
18733;DHT22;9495;51.210;2.934;2022-08-03T13:09:43;26.30;99.90
18733;DHT22;9495;51.210;2.934;2022-08-03T13:12:14;26.30;99.90
18733;DHT22;9495;51.210;2.934;2022-08-03T13:14:44;26.30;99.90
18733;DHT22;9495;51.210;2.934;2022-08-03T13:17:14;26.30;99.90
18733;DHT22;9495;51.210;2.934;2022-08-03T13:19:44;26.20;99.90
18733;DHT22;9495;51.210;2.934;2022-08-03T13:22:14;26.20;99.90
18733;DHT22;9495;51.210;2.934;2022-08-03T13:24:45;26.20;99.90
18733;DHT22;9495;51.210;2.934;2022-08-03T13:27:14;26.20;99.90
18733;DHT22;9495;51.210;2.934;2022-08-03T13:30:03;26.30;99.90
18733;DHT22;9495;51.210;2.934;2022-08-03T13:32:32;26.30;99.90
18733;DHT22;9495;51.210;2.934;2022-08-03T13:35:01;26.40;99.90
18733;DHT22;9495;51.210;2.934;2022-08-03T13:37:30;26.40;99.90
18733;DHT22;9495;51.210;2.934;2022-08-03T13:40:02;26.50;99.90
18733;DHT22;9495;51.210;2.934;2022-08-03T13:42:33;26.60;99.90
18733;DHT22;9495;51.210;2.934;2022-08-03T13:45:03;26.60;99.90
18733;DHT22;9495;51.210;2.934;2022-08-03T13:47:31;26.60;99.90
18733;DHT22;9495;51.210;2.934;2022-08-03T13:50:00;26.50;99.90
18733;DHT22;9495;51.210;2.934;2022-08-03T13:52:30;26.60;99.90
18733;DHT22;9495;51.210;2.934;2022-08-03T13:55:00;26.60;99.90
18733;DHT22;9495;51.210;2.934;2022-08-03T13:57:29;26.60;99.90
18733;DHT22;9495;51.210;2.934;2022-08-03T14:00:18;26.60;99.90
18733;DHT22;9495;51.210;2.934;2022-08-03T14:02:57;26.60;99.90
18733;DHT22;9495;51.210;2.934;2022-08-03T14:05:39;26.50;99.90
18733;DHT22;9495;51.210;2.934;2022-08-03T14:08:09;26.50;99.90
18733;DHT22;9495;51.210;2.934;2022-08-03T14:10:41;26.50;99.90
18733;DHT22;9495;51.210;2.934;2022-08-03T14:13:10;26.40;99.90
18733;DHT22;9495;51.210;2.934;2022-08-03T14:15:44;26.40;99.90
18733;DHT22;9495;51.210;2.934;2022-08-03T14:18:17;26.50;99.90
18733;DHT22;9495;51.210;2.934;2022-08-03T14:21:00;26.50;99.90
18733;DHT22;9495;51.210;2.934;2022-08-03T14:23:32;26.60;99.90
18733;DHT22;9495;51.210;2.934;2022-08-03T14:26:02;26.70;99.90
18733;DHT22;9495;51.210;2.934;2022-08-03T14:28:31;26.70;99.90
18733;DHT22;9495;51.210;2.934;2022-08-03T14:31:00;26.60;99.90
18733;DHT22;9495;51.210;2.934;2022-08-03T14:33:28;26.70;99.90
18733;DHT22;9495;51.210;2.934;2022-08-03T14:35:57;26.40;99.90
18733;DHT22;9495;51.210;2.934;2022-08-03T14:38:26;26.50;99.90
18733;DHT22;9495;51.210;2.934;2022-08-03T14:40:54;26.50;99.90
18733;DHT22;9495;51.210;2.934;2022-08-03T14:43:24;26.40;99.90
18733;DHT22;9495;51.210;2.934;2022-08-03T14:46:00;26.30;99.90
18733;DHT22;9495;51.210;2.934;2022-08-03T14:48:28;26.20;99.90
18733;DHT22;9495;51.210;2.934;2022-08-03T14:51:17;26.40;99.90
18733;DHT22;9495;51.210;2.934;2022-08-03T14:53:45;26.40;99.90
18733;DHT22;9495;51.210;2.934;2022-08-03T14:56:14;26.50;99.90
18733;DHT22;9495;51.210;2.934;2022-08-03T14:58:43;26.60;99.90
18733;DHT22;9495;51.210;2.934;2022-08-03T15:01:12;26.60;99.90
18733;DHT22;9495;51.210;2.934;2022-08-03T15:04:00;26.60;99.90
18733;DHT22;9495;51.210;2.934;2022-08-03T15:06:29;26.70;99.90
18733;DHT22;9495;51.210;2.934;2022-08-03T15:08:57;26.70;99.90
18733;DHT22;9495;51.210;2.934;2022-08-03T15:11:46;26.70;99.90
18733;DHT22;9495;51.210;2.934;2022-08-03T15:14:17;26.70;99.90
18733;DHT22;9495;51.210;2.934;2022-08-03T15:16:54;26.70;99.90
18733;DHT22;9495;51.210;2.934;2022-08-03T15:19:23;26.60;99.90
18733;DHT22;9495;51.210;2.934;2022-08-03T15:22:11;26.70;99.90
18733;DHT22;9495;51.210;2.934;2022-08-03T15:24:45;26.50;99.90
18733;DHT22;9495;51.210;2.934;2022-08-03T15:27:13;26.60;99.90
18733;DHT22;9495;51.210;2.934;2022-08-03T15:29:43;26.70;99.90
18733;DHT22;9495;51.210;2.934;2022-08-03T15:32:32;26.70;99.90
18733;DHT22;9495;51.210;2.934;2022-08-03T15:35:00;26.70;99.90
18733;DHT22;9495;51.210;2.934;2022-08-03T15:37:29;26.70;99.90
18733;DHT22;9495;51.210;2.934;2022-08-03T15:39:57;26.60;99.90
18733;DHT22;9495;51.210;2.934;2022-08-03T15:42:28;26.60;99.90
18733;DHT22;9495;51.210;2.934;2022-08-03T15:44:58;26.60;99.90
18733;DHT22;9495;51.210;2.934;2022-08-03T15:47:26;26.70;99.90
18733;DHT22;9495;51.210;2.934;2022-08-03T15:49:54;26.70;99.90
18733;DHT22;9495;51.210;2.934;2022-08-03T15:52:23;26.70;99.90
18733;DHT22;9495;51.210;2.934;2022-08-03T15:54:52;26.70;99.90
18733;DHT22;9495;51.210;2.934;2022-08-03T15:57:21;26.60;99.90
18733;DHT22;9495;51.210;2.934;2022-08-03T15:59:49;26.60;99.90
18733;DHT22;9495;51.210;2.934;2022-08-03T16:02:19;26.70;99.90
18733;DHT22;9495;51.210;2.934;2022-08-03T16:04:48;26.70;99.90
18733;DHT22;9495;51.210;2.934;2022-08-03T16:07:18;26.70;99.90
18733;DHT22;9495;51.210;2.934;2022-08-03T16:10:27;26.70;99.90
18733;DHT22;9495;51.210;2.934;2022-08-03T16:12:56;26.70;99.90
18733;DHT22;9495;51.210;2.934;2022-08-03T16:15:26;26.70;99.90
18733;DHT22;9495;51.210;2.934;2022-08-03T16:17:55;26.60;99.90
18733;DHT22;9495;51.210;2.934;2022-08-03T16:20:24;26.50;99.90
18733;DHT22;9495;51.210;2.934;2022-08-03T16:23:01;26.60;99.90
18733;DHT22;9495;51.210;2.934;2022-08-03T16:25:37;26.70;99.90